sensor_id;sensor_type;location;lat;lon;timestamp;P1;durP1;ratioP1;P2;durP2;ratioP2
4933;SDS011;2482;49.154;8.254;2024-02-26T00:02:04;1.83;;;1.60;;
4933;SDS011;2482;49.154;8.254;2024-02-26T00:04:36;2.03;;;1.60;;
4933;SDS011;2482;49.154;8.254;2024-02-26T00:07:09;2.37;;;1.70;;
4933;SDS011;2482;49.154;8.254;2024-02-26T00:09:42;2.60;;;1.63;;
4933;SDS011;2482;49.154;8.254;2024-02-26T00:12:13;2.50;;;2.30;;
4933;SDS011;2482;49.154;8.254;2024-02-26T00:14:40;2.00;;;1.80;;
4933;SDS011;2482;49.154;8.254;2024-02-26T00:17:17;2.20;;;1.43;;
4933;SDS011;2482;49.154;8.254;2024-02-26T00:19:51;2.13;;;1.70;;
4933;SDS011;2482;49.154;8.254;2024-02-26T00:22:24;2.10;;;1.27;;
4933;SDS011;2482;49.154;8.254;2024-02-26T00:24:54;2.20;;;1.60;;
4933;SDS011;2482;49.154;8.254;2024-02-26T00:27:25;1.93;;;1.80;;
4933;SDS011;2482;49.154;8.254;2024-02-26T00:29:55;1.80;;;1.43;;
4933;SDS011;2482;49.154;8.254;2024-02-26T00:32:28;2.70;;;1.73;;
4933;SDS011;2482;49.154;8.254;2024-02-26T00:35:06;1.60;;;1.50;;
4933;SDS011;2482;49.154;8.254;2024-02-26T00:37:37;2.63;;;1.80;;
4933;SDS011;2482;49.154;8.254;2024-02-26T00:40:19;2.30;;;1.90;;
4933;SDS011;2482;49.154;8.254;2024-02-26T00:42:54;4.20;;;1.80;;
4933;SDS011;2482;49.154;8.254;2024-02-26T00:45:29;3.07;;;2.03;;
4933;SDS011;2482;49.154;8.254;2024-02-26T00:48:10;2.20;;;1.83;;
4933;SDS011;2482;49.154;8.254;2024-02-26T00:50:46;1.53;;;1.43;;
4933;SDS011;2482;49.154;8.254;2024-02-26T00:53:20;2.20;;;2.00;;
4933;SDS011;2482;49.154;8.254;2024-02-26T00:55:57;2.10;;;1.90;;
4933;SDS011;2482;49.154;8.254;2024-02-26T00:58:30;2.90;;;2.07;;
4933;SDS011;2482;49.154;8.254;2024-02-26T01:01:03;2.30;;;1.60;;
4933;SDS011;2482;49.154;8.254;2024-02-26T01:03:36;2.33;;;1.93;;
4933;SDS011;2482;49.154;8.254;2024-02-26T01:06:04;3.13;;;1.60;;
4933;SDS011;2482;49.154;8.254;2024-02-26T01:08:32;2.50;;;1.73;;
4933;SDS011;2482;49.154;8.254;2024-02-26T01:11:11;3.77;;;1.77;;
4933;SDS011;2482;49.154;8.254;2024-02-26T01:13:42;2.13;;;1.93;;
4933;SDS011;2482;49.154;8.254;2024-02-26T01:16:14;2.10;;;1.90;;
4933;SDS011;2482;49.154;8.254;2024-02-26T01:18:48;2.27;;;1.53;;
4933;SDS011;2482;49.154;8.254;2024-02-26T01:21:20;5.03;;;1.43;;
4933;SDS011;2482;49.154;8.254;2024-02-26T01:23:48;2.60;;;1.80;;
4933;SDS011;2482;49.154;8.254;2024-02-26T01:26:16;2.10;;;1.90;;
4933;SDS011;2482;49.154;8.254;2024-02-26T01:28:46;2.50;;;2.07;;
4933;SDS011;2482;49.154;8.254;2024-02-26T01:31:16;3.53;;;1.90;;
4933;SDS011;2482;49.154;8.254;2024-02-26T01:33:57;2.30;;;1.47;;
4933;SDS011;2482;49.154;8.254;2024-02-26T01:36:39;2.37;;;1.80;;
4933;SDS011;2482;49.154;8.254;2024-02-26T01:39:37;1.87;;;1.70;;
4933;SDS011;2482;49.154;8.254;2024-02-26T01:42:08;2.90;;;1.90;;
4933;SDS011;2482;49.154;8.254;2024-02-26T01:44:38;2.20;;;2.00;;
4933;SDS011;2482;49.154;8.254;2024-02-26T01:47:14;2.07;;;1.63;;
4933;SDS011;2482;49.154;8.254;2024-02-26T01:49:50;2.07;;;1.87;;
4933;SDS011;2482;49.154;8.254;2024-02-26T01:52:23;2.53;;;2.10;;
4933;SDS011;2482;49.154;8.254;2024-02-26T01:54:54;3.03;;;1.93;;
4933;SDS011;2482;49.154;8.254;2024-02-26T01:57:27;2.97;;;2.20;;
4933;SDS011;2482;49.154;8.254;2024-02-26T01:59:58;2.33;;;1.90;;
4933;SDS011;2482;49.154;8.254;2024-02-26T02:02:34;4.80;;;1.80;;
4933;SDS011;2482;49.154;8.254;2024-02-26T02:05:13;4.37;;;1.93;;
4933;SDS011;2482;49.154;8.254;2024-02-26T02:07:50;2.60;;;2.07;;
4933;SDS011;2482;49.154;8.254;2024-02-26T02:10:21;3.07;;;2.60;;
4933;SDS011;2482;49.154;8.254;2024-02-26T02:12:52;2.93;;;2.00;;
4933;SDS011;2482;49.154;8.254;2024-02-26T02:15:22;2.33;;;2.13;;
4933;SDS011;2482;49.154;8.254;2024-02-26T02:17:59;4.33;;;2.33;;
4933;SDS011;2482;49.154;8.254;2024-02-26T02:20:41;4.37;;;2.13;;
4933;SDS011;2482;49.154;8.254;2024-02-26T02:23:16;5.30;;;2.20;;
4933;SDS011;2482;49.154;8.254;2024-02-26T02:25:54;1.60;;;1.50;;
4933;SDS011;2482;49.154;8.254;2024-02-26T02:28:23;1.60;;;1.37;;
4933;SDS011;2482;49.154;8.254;2024-02-26T02:31:01;2.50;;;1.30;;
4933;SDS011;2482;49.154;8.254;2024-02-26T02:33:31;1.40;;;1.30;;
4933;SDS011;2482;49.154;8.254;2024-02-26T02:36:06;1.20;;;1.10;;
4933;SDS011;2482;49.154;8.254;2024-02-26T02:38:39;1.30;;;0.90;;
4933;SDS011;2482;49.154;8.254;2024-02-26T02:41:22;1.20;;;1.10;;
4933;SDS011;2482;49.154;8.254;2024-02-26T02:43:50;1.33;;;1.00;;
4933;SDS011;2482;49.154;8.254;2024-02-26T02:46:24;1.00;;;0.90;;
4933;SDS011;2482;49.154;8.254;2024-02-26T02:48:52;1.00;;;0.90;;
4933;SDS011;2482;49.154;8.254;2024-02-26T02:51:28;1.33;;;0.97;;
4933;SDS011;2482;49.154;8.254;2024-02-26T02:54:04;1.20;;;1.07;;
4933;SDS011;2482;49.154;8.254;2024-02-26T02:56:40;3.07;;;1.23;;
4933;SDS011;2482;49.154;8.254;2024-02-26T02:59:08;1.30;;;1.20;;
4933;SDS011;2482;49.154;8.254;2024-02-26T03:01:50;1.20;;;1.10;;
4933;SDS011;2482;49.154;8.254;2024-02-26T03:04:47;2.07;;;1.30;;
4933;SDS011;2482;49.154;8.254;2024-02-26T03:07:21;1.30;;;1.00;;
4933;SDS011;2482;49.154;8.254;2024-02-26T03:10:11;1.73;;;1.30;;
4933;SDS011;2482;49.154;8.254;2024-02-26T03:12:45;1.30;;;1.10;;
4933;SDS011;2482;49.154;8.254;2024-02-26T03:15:18;1.33;;;1.17;;
4933;SDS011;2482;49.154;8.254;2024-02-26T03:17:57;2.77;;;1.10;;
4933;SDS011;2482;49.154;8.254;2024-02-26T03:20:28;1.03;;;0.97;;
4933;SDS011;2482;49.154;8.254;2024-02-26T03:23:01;2.50;;;1.00;;
4933;SDS011;2482;49.154;8.254;2024-02-26T03:25:32;2.20;;;1.33;;
4933;SDS011;2482;49.154;8.254;2024-02-26T03:28:09;1.30;;;1.20;;
4933;SDS011;2482;49.154;8.254;2024-02-26T03:30:39;2.00;;;1.47;;
4933;SDS011;2482;49.154;8.254;2024-02-26T03:33:10;1.60;;;1.50;;
4933;SDS011;2482;49.154;8.254;2024-02-26T03:35:41;2.70;;;1.70;;
4933;SDS011;2482;49.154;8.254;2024-02-26T03:38:10;3.33;;;1.57;;
4933;SDS011;2482;49.154;8.254;2024-02-26T03:40:48;2.30;;;2.00;;
4933;SDS011;2482;49.154;8.254;2024-02-26T03:43:18;1.43;;;1.30;;
4933;SDS011;2482;49.154;8.254;2024-02-26T03:45:48;2.20;;;1.60;;
4933;SDS011;2482;49.154;8.254;2024-02-26T03:48:19;3.27;;;1.57;;
4933;SDS011;2482;49.154;8.254;2024-02-26T03:50:56;2.30;;;1.73;;
4933;SDS011;2482;49.154;8.254;2024-02-26T03:53:29;1.30;;;1.20;;
4933;SDS011;2482;49.154;8.254;2024-02-26T03:58:35;1.60;;;1.50;;
4933;SDS011;2482;49.154;8.254;2024-02-26T04:01:09;5.17;;;1.17;;
4933;SDS011;2482;49.154;8.254;2024-02-26T04:03:44;1.53;;;1.43;;
4933;SDS011;2482;49.154;8.254;2024-02-26T04:06:21;1.10;;;1.00;;
4933;SDS011;2482;49.154;8.254;2024-02-26T04:08:57;1.17;;;1.00;;
4933;SDS011;2482;49.154;8.254;2024-02-26T04:11:34;0.87;;;0.87;;
4933;SDS011;2482;49.154;8.254;2024-02-26T04:14:02;1.87;;;1.20;;
4933;SDS011;2482;49.154;8.254;2024-02-26T04:16:36;2.10;;;0.80;;
4933;SDS011;2482;49.154;8.254;2024-02-26T04:19:15;1.00;;;0.90;;
4933;SDS011;2482;49.154;8.254;2024-02-26T04:21:52;0.77;;;0.77;;
4933;SDS011;2482;49.154;8.254;2024-02-26T04:24:26;1.03;;;0.90;;
4933;SDS011;2482;49.154;8.254;2024-02-26T04:27:01;0.87;;;0.80;;
4933;SDS011;2482;49.154;8.254;2024-02-26T04:29:33;0.70;;;0.70;;
4933;SDS011;2482;49.154;8.254;2024-02-26T04:32:06;0.70;;;0.70;;
4933;SDS011;2482;49.154;8.254;2024-02-26T04:34:42;0.80;;;0.70;;
4933;SDS011;2482;49.154;8.254;2024-02-26T04:37:19;0.90;;;0.80;;
4933;SDS011;2482;49.154;8.254;2024-02-26T04:39:46;0.80;;;0.80;;
4933;SDS011;2482;49.154;8.254;2024-02-26T04:42:17;0.90;;;0.90;;
4933;SDS011;2482;49.154;8.254;2024-02-26T04:45:04;1.40;;;1.30;;
4933;SDS011;2482;49.154;8.254;2024-02-26T04:47:43;1.87;;;1.30;;
4933;SDS011;2482;49.154;8.254;2024-02-26T04:50:12;2.30;;;1.70;;
4933;SDS011;2482;49.154;8.254;2024-02-26T04:52:50;2.10;;;1.50;;
4933;SDS011;2482;49.154;8.254;2024-02-26T04:55:23;1.17;;;1.07;;
4933;SDS011;2482;49.154;8.254;2024-02-26T04:57:53;1.00;;;0.83;;
4933;SDS011;2482;49.154;8.254;2024-02-26T05:00:26;1.40;;;1.03;;
4933;SDS011;2482;49.154;8.254;2024-02-26T05:03:03;1.17;;;0.90;;
4933;SDS011;2482;49.154;8.254;2024-02-26T05:05:38;1.10;;;1.00;;
4933;SDS011;2482;49.154;8.254;2024-02-26T05:08:07;0.83;;;0.83;;
4933;SDS011;2482;49.154;8.254;2024-02-26T05:10:41;1.37;;;1.20;;
4933;SDS011;2482;49.154;8.254;2024-02-26T05:13:15;1.40;;;1.30;;
4933;SDS011;2482;49.154;8.254;2024-02-26T05:15:55;1.00;;;1.00;;
4933;SDS011;2482;49.154;8.254;2024-02-26T05:18:33;2.30;;;1.40;;
4933;SDS011;2482;49.154;8.254;2024-02-26T05:21:07;0.90;;;0.90;;
4933;SDS011;2482;49.154;8.254;2024-02-26T05:23:43;6.40;;;0.90;;
4933;SDS011;2482;49.154;8.254;2024-02-26T05:26:24;0.87;;;0.83;;
4933;SDS011;2482;49.154;8.254;2024-02-26T05:29:04;1.43;;;1.33;;
4933;SDS011;2482;49.154;8.254;2024-02-26T05:31:34;2.43;;;1.30;;
4933;SDS011;2482;49.154;8.254;2024-02-26T05:34:02;1.20;;;1.10;;
4933;SDS011;2482;49.154;8.254;2024-02-26T05:36:34;1.53;;;1.07;;
4933;SDS011;2482;49.154;8.254;2024-02-26T05:39:04;0.73;;;0.73;;
4933;SDS011;2482;49.154;8.254;2024-02-26T05:41:46;1.07;;;0.90;;
4933;SDS011;2482;49.154;8.254;2024-02-26T05:44:26;1.63;;;1.20;;
4933;SDS011;2482;49.154;8.254;2024-02-26T05:47:01;1.50;;;0.90;;
4933;SDS011;2482;49.154;8.254;2024-02-26T05:49:37;0.80;;;0.80;;
4933;SDS011;2482;49.154;8.254;2024-02-26T05:52:05;1.07;;;1.00;;
4933;SDS011;2482;49.154;8.254;2024-02-26T05:54:36;0.90;;;0.90;;
4933;SDS011;2482;49.154;8.254;2024-02-26T05:57:17;1.00;;;0.83;;
4933;SDS011;2482;49.154;8.254;2024-02-26T05:59:54;1.33;;;1.03;;
4933;SDS011;2482;49.154;8.254;2024-02-26T06:02:22;2.60;;;0.87;;
4933;SDS011;2482;49.154;8.254;2024-02-26T06:04:55;1.10;;;0.80;;
4933;SDS011;2482;49.154;8.254;2024-02-26T06:07:24;1.73;;;1.10;;
4933;SDS011;2482;49.154;8.254;2024-02-26T06:09:59;1.03;;;0.93;;
4933;SDS011;2482;49.154;8.254;2024-02-26T06:12:39;0.80;;;0.80;;
4933;SDS011;2482;49.154;8.254;2024-02-26T06:15:07;2.70;;;1.07;;
4933;SDS011;2482;49.154;8.254;2024-02-26T06:17:44;0.80;;;0.80;;
4933;SDS011;2482;49.154;8.254;2024-02-26T06:20:25;0.90;;;0.80;;
4933;SDS011;2482;49.154;8.254;2024-02-26T06:23:00;1.63;;;1.00;;
4933;SDS011;2482;49.154;8.254;2024-02-26T06:25:44;1.37;;;1.13;;
4933;SDS011;2482;49.154;8.254;2024-02-26T06:28:17;1.20;;;1.10;;
4933;SDS011;2482;49.154;8.254;2024-02-26T06:30:53;1.30;;;0.90;;
4933;SDS011;2482;49.154;8.254;2024-02-26T06:33:27;2.67;;;1.20;;
4933;SDS011;2482;49.154;8.254;2024-02-26T06:35:55;1.93;;;1.47;;
4933;SDS011;2482;49.154;8.254;2024-02-26T06:38:40;3.13;;;2.03;;
4933;SDS011;2482;49.154;8.254;2024-02-26T06:41:11;3.73;;;2.37;;
4933;SDS011;2482;49.154;8.254;2024-02-26T06:43:39;4.67;;;2.57;;
4933;SDS011;2482;49.154;8.254;2024-02-26T06:46:16;2.57;;;2.03;;
4933;SDS011;2482;49.154;8.254;2024-02-26T06:48:44;1.63;;;1.30;;
4933;SDS011;2482;49.154;8.254;2024-02-26T06:51:21;3.63;;;0.90;;
4933;SDS011;2482;49.154;8.254;2024-02-26T06:53:52;1.10;;;1.00;;
4933;SDS011;2482;49.154;8.254;2024-02-26T06:56:32;0.90;;;0.90;;
4933;SDS011;2482;49.154;8.254;2024-02-26T06:59:11;1.37;;;1.27;;
4933;SDS011;2482;49.154;8.254;2024-02-26T07:01:47;1.40;;;1.30;;
4933;SDS011;2482;49.154;8.254;2024-02-26T07:04:15;2.27;;;2.07;;
4933;SDS011;2482;49.154;8.254;2024-02-26T07:06:43;2.40;;;2.20;;
4933;SDS011;2482;49.154;8.254;2024-02-26T07:09:31;3.30;;;2.37;;
4933;SDS011;2482;49.154;8.254;2024-02-26T07:12:05;3.03;;;1.70;;
4933;SDS011;2482;49.154;8.254;2024-02-26T07:14:38;3.03;;;1.90;;
4933;SDS011;2482;49.154;8.254;2024-02-26T07:17:13;1.50;;;1.30;;
4933;SDS011;2482;49.154;8.254;2024-02-26T07:19:50;1.40;;;1.30;;
4933;SDS011;2482;49.154;8.254;2024-02-26T07:22:19;1.30;;;1.20;;
4933;SDS011;2482;49.154;8.254;2024-02-26T07:24:54;1.20;;;1.10;;
4933;SDS011;2482;49.154;8.254;2024-02-26T07:27:33;1.70;;;1.17;;
4933;SDS011;2482;49.154;8.254;2024-02-26T07:30:16;1.20;;;1.10;;
4933;SDS011;2482;49.154;8.254;2024-02-26T07:32:51;1.10;;;1.00;;
4933;SDS011;2482;49.154;8.254;2024-02-26T07:35:22;1.27;;;1.17;;
4933;SDS011;2482;49.154;8.254;2024-02-26T07:37:59;1.37;;;1.27;;
4933;SDS011;2482;49.154;8.254;2024-02-26T07:40:31;1.60;;;1.50;;
4933;SDS011;2482;49.154;8.254;2024-02-26T07:43:10;1.47;;;1.33;;
4933;SDS011;2482;49.154;8.254;2024-02-26T07:45:45;1.93;;;1.63;;
4933;SDS011;2482;49.154;8.254;2024-02-26T07:48:19;1.53;;;1.43;;
4933;SDS011;2482;49.154;8.254;2024-02-26T07:50:57;1.83;;;1.60;;
4933;SDS011;2482;49.154;8.254;2024-02-26T07:53:30;5.20;;;1.60;;
4933;SDS011;2482;49.154;8.254;2024-02-26T07:56:01;1.70;;;1.60;;
4933;SDS011;2482;49.154;8.254;2024-02-26T07:58:32;1.80;;;1.47;;
4933;SDS011;2482;49.154;8.254;2024-02-26T08:01:06;1.70;;;1.60;;
4933;SDS011;2482;49.154;8.254;2024-02-26T08:03:38;2.27;;;1.93;;
4933;SDS011;2482;49.154;8.254;2024-02-26T08:06:16;1.60;;;1.50;;
4933;SDS011;2482;49.154;8.254;2024-02-26T08:09:03;1.53;;;1.43;;
4933;SDS011;2482;49.154;8.254;2024-02-26T08:11:37;2.37;;;1.57;;
4933;SDS011;2482;49.154;8.254;2024-02-26T08:14:07;1.40;;;1.30;;
4933;SDS011;2482;49.154;8.254;2024-02-26T08:16:40;2.27;;;1.60;;
4933;SDS011;2482;49.154;8.254;2024-02-26T08:19:10;1.83;;;1.47;;
4933;SDS011;2482;49.154;8.254;2024-02-26T08:21:48;2.10;;;1.70;;
4933;SDS011;2482;49.154;8.254;2024-02-26T08:24:17;1.80;;;1.60;;
4933;SDS011;2482;49.154;8.254;2024-02-26T08:26:51;2.70;;;1.80;;
4933;SDS011;2482;49.154;8.254;2024-02-26T08:29:19;2.40;;;1.60;;
4933;SDS011;2482;49.154;8.254;2024-02-26T08:32:06;2.73;;;2.23;;
4933;SDS011;2482;49.154;8.254;2024-02-26T08:34:46;1.80;;;1.53;;
4933;SDS011;2482;49.154;8.254;2024-02-26T08:37:30;11.83;;;2.00;;
4933;SDS011;2482;49.154;8.254;2024-02-26T08:40:10;1.93;;;1.73;;
4933;SDS011;2482;49.154;8.254;2024-02-26T08:42:50;3.10;;;2.00;;
4933;SDS011;2482;49.154;8.254;2024-02-26T08:45:19;4.27;;;2.00;;
4933;SDS011;2482;49.154;8.254;2024-02-26T08:47:47;2.70;;;1.60;;
4933;SDS011;2482;49.154;8.254;2024-02-26T08:50:15;2.03;;;1.80;;
4933;SDS011;2482;49.154;8.254;2024-02-26T08:52:46;2.53;;;1.93;;
4933;SDS011;2482;49.154;8.254;2024-02-26T08:55:24;2.40;;;1.90;;
4933;SDS011;2482;49.154;8.254;2024-02-26T08:57:57;2.20;;;2.00;;
4933;SDS011;2482;49.154;8.254;2024-02-26T09:00:25;2.57;;;2.33;;
4933;SDS011;2482;49.154;8.254;2024-02-26T09:02:58;2.30;;;1.60;;
4933;SDS011;2482;49.154;8.254;2024-02-26T09:05:32;2.43;;;2.07;;
4933;SDS011;2482;49.154;8.254;2024-02-26T09:08:04;2.23;;;1.87;;
4933;SDS011;2482;49.154;8.254;2024-02-26T09:10:38;2.57;;;1.97;;
4933;SDS011;2482;49.154;8.254;2024-02-26T09:13:12;3.90;;;2.07;;
4933;SDS011;2482;49.154;8.254;2024-02-26T09:15:50;3.83;;;2.00;;
4933;SDS011;2482;49.154;8.254;2024-02-26T09:18:33;1.70;;;1.60;;
4933;SDS011;2482;49.154;8.254;2024-02-26T09:21:05;2.80;;;1.63;;
4933;SDS011;2482;49.154;8.254;2024-02-26T09:23:34;2.00;;;1.90;;
4933;SDS011;2482;49.154;8.254;2024-02-26T09:26:02;2.53;;;1.70;;
4933;SDS011;2482;49.154;8.254;2024-02-26T09:28:41;3.70;;;2.03;;
4933;SDS011;2482;49.154;8.254;2024-02-26T09:31:17;2.57;;;1.93;;
4933;SDS011;2482;49.154;8.254;2024-02-26T09:33:55;3.60;;;1.63;;
4933;SDS011;2482;49.154;8.254;2024-02-26T09:36:29;2.53;;;1.80;;
4933;SDS011;2482;49.154;8.254;2024-02-26T09:39:03;1.90;;;1.67;;
4933;SDS011;2482;49.154;8.254;2024-02-26T09:41:38;2.30;;;1.40;;
4933;SDS011;2482;49.154;8.254;2024-02-26T09:44:06;1.67;;;1.57;;
4933;SDS011;2482;49.154;8.254;2024-02-26T09:46:35;6.30;;;1.50;;
4933;SDS011;2482;49.154;8.254;2024-02-26T09:49:03;2.87;;;1.60;;
4933;SDS011;2482;49.154;8.254;2024-02-26T09:51:41;3.70;;;1.60;;
4933;SDS011;2482;49.154;8.254;2024-02-26T09:54:14;2.03;;;1.43;;
4933;SDS011;2482;49.154;8.254;2024-02-26T09:56:45;1.30;;;1.20;;
4933;SDS011;2482;49.154;8.254;2024-02-26T09:59:32;2.73;;;1.40;;
4933;SDS011;2482;49.154;8.254;2024-02-26T10:04:45;1.47;;;1.37;;
4933;SDS011;2482;49.154;8.254;2024-02-26T10:07:18;2.00;;;1.53;;
4933;SDS011;2482;49.154;8.254;2024-02-26T10:10:00;1.70;;;1.60;;
4933;SDS011;2482;49.154;8.254;2024-02-26T10:12:35;3.40;;;1.57;;
4933;SDS011;2482;49.154;8.254;2024-02-26T10:15:03;5.47;;;1.37;;
4933;SDS011;2482;49.154;8.254;2024-02-26T10:17:37;1.50;;;1.40;;
4933;SDS011;2482;49.154;8.254;2024-02-26T10:20:16;1.50;;;1.37;;
4933;SDS011;2482;49.154;8.254;2024-02-26T10:22:54;1.80;;;1.47;;
4933;SDS011;2482;49.154;8.254;2024-02-26T10:25:25;1.40;;;1.30;;
4933;SDS011;2482;49.154;8.254;2024-02-26T10:28:01;1.53;;;1.43;;
4933;SDS011;2482;49.154;8.254;2024-02-26T10:30:36;2.13;;;1.63;;
4933;SDS011;2482;49.154;8.254;2024-02-26T10:33:05;1.40;;;1.30;;
4933;SDS011;2482;49.154;8.254;2024-02-26T10:35:38;1.40;;;1.30;;
4933;SDS011;2482;49.154;8.254;2024-02-26T10:38:07;2.13;;;1.53;;
4933;SDS011;2482;49.154;8.254;2024-02-26T10:40:38;1.77;;;1.67;;
4933;SDS011;2482;49.154;8.254;2024-02-26T10:43:09;1.47;;;1.37;;
4933;SDS011;2482;49.154;8.254;2024-02-26T10:45:48;1.50;;;1.40;;
4933;SDS011;2482;49.154;8.254;2024-02-26T10:48:17;2.73;;;1.80;;
4933;SDS011;2482;49.154;8.254;2024-02-26T10:50:48;2.13;;;1.40;;
4933;SDS011;2482;49.154;8.254;2024-02-26T10:53:20;1.87;;;1.43;;
4933;SDS011;2482;49.154;8.254;2024-02-26T10:56:06;1.30;;;1.20;;
4933;SDS011;2482;49.154;8.254;2024-02-26T10:58:38;2.10;;;1.57;;
4933;SDS011;2482;49.154;8.254;2024-02-26T11:01:12;1.40;;;1.30;;
4933;SDS011;2482;49.154;8.254;2024-02-26T11:03:57;1.60;;;1.50;;
4933;SDS011;2482;49.154;8.254;2024-02-26T11:06:31;1.73;;;1.40;;
4933;SDS011;2482;49.154;8.254;2024-02-26T11:09:11;1.70;;;1.60;;
4933;SDS011;2482;49.154;8.254;2024-02-26T11:11:47;2.17;;;1.57;;
4933;SDS011;2482;49.154;8.254;2024-02-26T11:14:27;2.10;;;1.40;;
4933;SDS011;2482;49.154;8.254;2024-02-26T11:17:01;1.73;;;1.47;;
4933;SDS011;2482;49.154;8.254;2024-02-26T11:19:32;1.50;;;1.40;;
4933;SDS011;2482;49.154;8.254;2024-02-26T11:22:04;2.80;;;1.67;;
4933;SDS011;2482;49.154;8.254;2024-02-26T11:24:50;2.53;;;1.90;;
4933;SDS011;2482;49.154;8.254;2024-02-26T11:27:18;2.10;;;1.53;;
4933;SDS011;2482;49.154;8.254;2024-02-26T11:29:55;1.00;;;1.00;;
4933;SDS011;2482;49.154;8.254;2024-02-26T11:32:30;1.97;;;1.60;;
4933;SDS011;2482;49.154;8.254;2024-02-26T11:35:07;1.90;;;1.50;;
4933;SDS011;2482;49.154;8.254;2024-02-26T11:37:50;1.93;;;1.53;;
4933;SDS011;2482;49.154;8.254;2024-02-26T11:40:24;1.83;;;1.47;;
4933;SDS011;2482;49.154;8.254;2024-02-26T11:42:58;1.97;;;1.60;;
4933;SDS011;2482;49.154;8.254;2024-02-26T11:48:14;1.73;;;1.40;;
4933;SDS011;2482;49.154;8.254;2024-02-26T11:50:48;2.23;;;1.50;;
4933;SDS011;2482;49.154;8.254;2024-02-26T11:53:26;3.60;;;1.33;;
4933;SDS011;2482;49.154;8.254;2024-02-26T11:56:22;1.33;;;1.23;;
4933;SDS011;2482;49.154;8.254;2024-02-26T11:58:59;1.30;;;1.20;;
4933;SDS011;2482;49.154;8.254;2024-02-26T12:01:46;1.50;;;1.30;;
4933;SDS011;2482;49.154;8.254;2024-02-26T12:04:24;1.87;;;1.47;;
4933;SDS011;2482;49.154;8.254;2024-02-26T12:07:06;1.87;;;1.40;;
4933;SDS011;2482;49.154;8.254;2024-02-26T12:09:48;2.67;;;1.93;;
4933;SDS011;2482;49.154;8.254;2024-02-26T12:12:21;1.50;;;1.37;;
4933;SDS011;2482;49.154;8.254;2024-02-26T12:14:56;1.40;;;1.30;;
4933;SDS011;2482;49.154;8.254;2024-02-26T12:17:31;1.90;;;1.33;;
4933;SDS011;2482;49.154;8.254;2024-02-26T12:20:09;1.30;;;1.20;;
4933;SDS011;2482;49.154;8.254;2024-02-26T12:22:46;1.73;;;1.33;;
4933;SDS011;2482;49.154;8.254;2024-02-26T12:25:26;1.40;;;1.30;;
4933;SDS011;2482;49.154;8.254;2024-02-26T12:27:59;0.90;;;0.90;;
4933;SDS011;2482;49.154;8.254;2024-02-26T12:30:32;1.43;;;1.33;;
4933;SDS011;2482;49.154;8.254;2024-02-26T12:33:02;2.13;;;1.30;;
4933;SDS011;2482;49.154;8.254;2024-02-26T12:35:46;1.60;;;1.47;;
4933;SDS011;2482;49.154;8.254;2024-02-26T12:38:21;1.50;;;1.40;;
4933;SDS011;2482;49.154;8.254;2024-02-26T12:40:56;1.97;;;1.20;;
4933;SDS011;2482;49.154;8.254;2024-02-26T12:43:27;1.83;;;1.27;;
4933;SDS011;2482;49.154;8.254;2024-02-26T12:46:03;3.90;;;1.40;;
4933;SDS011;2482;49.154;8.254;2024-02-26T12:48:35;1.20;;;1.10;;
4933;SDS011;2482;49.154;8.254;2024-02-26T12:51:11;1.10;;;1.00;;
4933;SDS011;2482;49.154;8.254;2024-02-26T12:53:51;1.10;;;1.00;;
4933;SDS011;2482;49.154;8.254;2024-02-26T12:56:28;2.23;;;1.10;;
4933;SDS011;2482;49.154;8.254;2024-02-26T12:58:58;1.00;;;0.90;;
4933;SDS011;2482;49.154;8.254;2024-02-26T13:01:35;1.27;;;1.10;;
4933;SDS011;2482;49.154;8.254;2024-02-26T13:04:07;1.07;;;1.00;;
4933;SDS011;2482;49.154;8.254;2024-02-26T13:06:38;1.27;;;1.03;;
4933;SDS011;2482;49.154;8.254;2024-02-26T13:09:12;1.53;;;1.40;;
4933;SDS011;2482;49.154;8.254;2024-02-26T13:11:48;3.23;;;1.30;;
4933;SDS011;2482;49.154;8.254;2024-02-26T13:14:29;1.03;;;0.93;;
4933;SDS011;2482;49.154;8.254;2024-02-26T13:17:10;1.30;;;1.20;;
4933;SDS011;2482;49.154;8.254;2024-02-26T13:19:49;0.87;;;0.80;;
4933;SDS011;2482;49.154;8.254;2024-02-26T13:22:20;0.70;;;0.70;;
4933;SDS011;2482;49.154;8.254;2024-02-26T13:25:00;0.80;;;0.80;;
4933;SDS011;2482;49.154;8.254;2024-02-26T13:27:33;0.93;;;0.90;;
4933;SDS011;2482;49.154;8.254;2024-02-26T13:30:04;2.13;;;1.33;;
4933;SDS011;2482;49.154;8.254;2024-02-26T13:32:46;1.33;;;1.23;;
4933;SDS011;2482;49.154;8.254;2024-02-26T13:35:19;1.40;;;1.27;;
4933;SDS011;2482;49.154;8.254;2024-02-26T13:37:47;1.10;;;0.90;;
4933;SDS011;2482;49.154;8.254;2024-02-26T13:40:18;1.93;;;0.97;;
4933;SDS011;2482;49.154;8.254;2024-02-26T13:42:55;1.10;;;1.00;;
4933;SDS011;2482;49.154;8.254;2024-02-26T13:45:39;0.80;;;0.80;;
4933;SDS011;2482;49.154;8.254;2024-02-26T13:48:12;2.40;;;0.80;;
4933;SDS011;2482;49.154;8.254;2024-02-26T13:50:42;1.00;;;0.90;;
4933;SDS011;2482;49.154;8.254;2024-02-26T13:53:15;0.80;;;0.80;;
4933;SDS011;2482;49.154;8.254;2024-02-26T13:55:57;0.70;;;0.70;;
4933;SDS011;2482;49.154;8.254;2024-02-26T13:58:34;1.13;;;1.00;;
4933;SDS011;2482;49.154;8.254;2024-02-26T14:01:02;2.53;;;0.80;;
4933;SDS011;2482;49.154;8.254;2024-02-26T14:03:40;3.00;;;0.80;;
4933;SDS011;2482;49.154;8.254;2024-02-26T14:06:11;2.07;;;0.87;;
4933;SDS011;2482;49.154;8.254;2024-02-26T14:08:40;1.53;;;0.90;;
4933;SDS011;2482;49.154;8.254;2024-02-26T14:11:11;0.70;;;0.70;;
4933;SDS011;2482;49.154;8.254;2024-02-26T14:13:47;2.43;;;0.80;;
4933;SDS011;2482;49.154;8.254;2024-02-26T14:16:18;1.30;;;0.70;;
4933;SDS011;2482;49.154;8.254;2024-02-26T14:18:50;1.13;;;0.90;;
4933;SDS011;2482;49.154;8.254;2024-02-26T14:21:24;1.13;;;0.90;;
4933;SDS011;2482;49.154;8.254;2024-02-26T14:23:56;1.37;;;1.10;;
4933;SDS011;2482;49.154;8.254;2024-02-26T14:26:27;1.20;;;1.10;;
4933;SDS011;2482;49.154;8.254;2024-02-26T14:28:55;0.90;;;0.90;;
4933;SDS011;2482;49.154;8.254;2024-02-26T14:31:26;1.07;;;0.93;;
4933;SDS011;2482;49.154;8.254;2024-02-26T14:34:00;3.40;;;0.90;;
4933;SDS011;2482;49.154;8.254;2024-02-26T14:36:28;1.10;;;1.00;;
4933;SDS011;2482;49.154;8.254;2024-02-26T14:39:11;1.10;;;0.70;;
4933;SDS011;2482;49.154;8.254;2024-02-26T14:41:39;1.20;;;1.00;;
4933;SDS011;2482;49.154;8.254;2024-02-26T14:44:16;3.47;;;1.03;;
4933;SDS011;2482;49.154;8.254;2024-02-26T14:47:00;1.00;;;0.90;;
4933;SDS011;2482;49.154;8.254;2024-02-26T14:49:34;2.50;;;0.77;;
4933;SDS011;2482;49.154;8.254;2024-02-26T14:52:11;1.10;;;0.70;;
4933;SDS011;2482;49.154;8.254;2024-02-26T14:54:39;1.00;;;0.90;;
4933;SDS011;2482;49.154;8.254;2024-02-26T14:57:14;1.87;;;1.00;;
4933;SDS011;2482;49.154;8.254;2024-02-26T14:59:44;0.70;;;0.70;;
4933;SDS011;2482;49.154;8.254;2024-02-26T15:02:21;1.33;;;1.00;;
4933;SDS011;2482;49.154;8.254;2024-02-26T15:04:58;1.27;;;1.13;;
4933;SDS011;2482;49.154;8.254;2024-02-26T15:07:39;0.80;;;0.80;;
4933;SDS011;2482;49.154;8.254;2024-02-26T15:10:16;3.40;;;1.00;;
4933;SDS011;2482;49.154;8.254;2024-02-26T15:12:48;1.30;;;1.20;;
4933;SDS011;2482;49.154;8.254;2024-02-26T15:15:22;1.43;;;1.07;;
4933;SDS011;2482;49.154;8.254;2024-02-26T15:17:51;1.03;;;0.60;;
4933;SDS011;2482;49.154;8.254;2024-02-26T15:20:35;2.03;;;0.90;;
4933;SDS011;2482;49.154;8.254;2024-02-26T15:23:08;1.13;;;0.93;;
4933;SDS011;2482;49.154;8.254;2024-02-26T15:25:42;1.13;;;0.87;;
4933;SDS011;2482;49.154;8.254;2024-02-26T15:28:13;0.80;;;0.80;;
4933;SDS011;2482;49.154;8.254;2024-02-26T15:30:50;0.70;;;0.70;;
4933;SDS011;2482;49.154;8.254;2024-02-26T15:33:26;1.57;;;1.00;;
4933;SDS011;2482;49.154;8.254;2024-02-26T15:36:01;0.60;;;0.60;;
4933;SDS011;2482;49.154;8.254;2024-02-26T15:38:41;0.70;;;0.70;;
4933;SDS011;2482;49.154;8.254;2024-02-26T15:41:15;0.90;;;0.90;;
4933;SDS011;2482;49.154;8.254;2024-02-26T15:43:48;2.30;;;0.93;;
4933;SDS011;2482;49.154;8.254;2024-02-26T15:46:21;0.93;;;0.80;;
4933;SDS011;2482;49.154;8.254;2024-02-26T15:49:00;0.80;;;0.80;;
4933;SDS011;2482;49.154;8.254;2024-02-26T15:51:37;0.83;;;0.70;;
4933;SDS011;2482;49.154;8.254;2024-02-26T15:54:16;0.97;;;0.67;;
4933;SDS011;2482;49.154;8.254;2024-02-26T15:56:46;2.03;;;0.87;;
4933;SDS011;2482;49.154;8.254;2024-02-26T15:59:22;0.70;;;0.70;;
4933;SDS011;2482;49.154;8.254;2024-02-26T16:02:00;1.37;;;0.70;;
4933;SDS011;2482;49.154;8.254;2024-02-26T16:04:41;0.90;;;0.60;;
4933;SDS011;2482;49.154;8.254;2024-02-26T16:07:30;1.93;;;0.67;;
4933;SDS011;2482;49.154;8.254;2024-02-26T16:10:11;2.50;;;0.97;;